Latest Weather Observations for Lucas Heights (ANSTO)

IDN60801

Issued at 8:52 pm EST Wednesday 19 September 2018 (issued every 10 minutes, with the page automatically refreshed every 10 minutes)

About weather observations | Map of weather stations | Latest weather observations for NSW | Other Formats
Station Details ID: 066023 Name: LUCAS HEIGHTS (ANSTO) Lat: -34.05 Lon: 150.98 Height: 140.0 m
Data from the previous 72 hours. | See also: Recent months for locations in New South Wales
Date/Time
EST
Temp
°C
App
Temp
°C
Dew
Point
°C
Rel
Hum
%
Delta-T
°C
Wind Press
QNH
hPa
Press
MSL
hPa
Rain since
9am
mm
Dir  Spd
km/h
Gust
km/h
Spd
kts
Gust
kts
19/08:30pm 13.9 10.5 7.6 66 3.1 S 15 24 8 13 1013.5 - 0.0
19/08:15pm 15.0 10.5 4.1 48 5.1 SSE 17 24 9 13 1013.4 - 0.0
19/08:00pm 16.2 10.1 -4.2 24 8.0 S 19 35 10 19 1013.0 - 0.0
19/07:45pm 16.6 10.4 -2.9 26 7.9 S 20 35 11 19 1012.6 - 0.0
19/07:30pm 17.2 10.8 -1.9 27 8.0 S 22 32 12 17 1012.2 - 0.0
19/07:15pm 17.8 11.4 -1.8 26 8.2 S 22 39 12 21 1011.9 - 0.0
19/07:00pm 18.4 12.0 -2.0 25 8.6 SSW 22 37 12 20 1011.5 - 0.0
19/06:45pm 19.0 12.5 -2.7 23 9.1 SSW 22 35 12 19 1011.1 - 0.0
19/06:30pm 19.5 13.5 -3.3 21 9.4 SW 19 28 10 15 1010.7 - 0.0
19/06:15pm 20.0 13.7 -3.8 20 9.8 SW 20 30 11 16 1010.2 - 0.0
19/06:00pm 20.7 14.0 -4.5 18 10.3 SW 22 32 12 17 1009.9 - 0.0
19/05:45pm 21.5 15.1 -5.0 16 10.8 WSW 20 32 11 17 1009.5 - 0.0
19/05:30pm 22.1 15.0 -4.2 17 11.0 WSW 24 32 13 17 1009.0 - 0.0
19/05:15pm 23.0 15.6 -3.7 16 11.3 W 26 35 14 19 1008.6 - 0.0
19/05:00pm 23.6 15.3 -5.2 14 11.9 W 30 43 16 23 1008.2 - 0.0
19/04:45pm 24.0 14.6 -6.2 13 12.3 W 35 52 19 28 1007.9 - 0.0
19/04:30pm 24.3 14.9 -5.9 13 12.4 W 35 59 19 32 1007.7 - 0.0
19/04:15pm 24.8 15.4 -5.9 12 12.7 W 35 52 19 28 1007.5 - 0.0
19/04:00pm 25.0 14.5 -6.5 12 12.9 W 41 57 22 31 1007.3 - 0.0
19/03:45pm 25.5 16.1 -6.8 11 13.2 W 35 52 19 28 1007.0 - 0.0
19/03:30pm 25.9 15.6 -8.1 10 13.7 W 39 63 21 34 1006.8 - 0.0
19/03:15pm 26.4 16.0 -9.2 9 14.1 W 39 61 21 33 1006.6 - 0.0
19/03:00pm 26.6 16.2 -9.0 9 14.2 WNW 39 61 21 33 1006.4 - 0.0
19/02:45pm 26.6 15.4 -9.9 8 14.3 WNW 43 65 23 35 1006.3 - 0.0
19/02:30pm 26.9 15.4 -10.6 8 14.5 WNW 44 67 24 36 1006.3 - 0.0
19/02:15pm 27.0 15.2 -10.0 8 14.5 WNW 46 65 25 35 1006.4 - 0.0
19/02:00pm 27.0 14.8 -10.6 8 14.6 W 48 67 26 36 1006.4 - 0.0
19/01:45pm 27.1 14.1 -10.9 7 14.7 W 52 72 28 39 1006.4 - 0.0
19/01:30pm 27.3 15.1 -9.9 8 14.7 W 48 65 26 35 1006.3 - 0.0
19/01:15pm 27.7 16.4 -9.0 8 14.8 WNW 44 65 24 35 1006.3 - 0.0
19/01:00pm 27.9 17.9 -9.0 8 14.9 WNW 37 61 20 33 1006.2 - 0.0
19/12:45pm 28.1 16.9 -9.1 8 15.0 WNW 43 67 23 36 1006.2 - 0.0
19/12:30pm 27.8 19.1 -5.6 11 14.3 WNW 32 59 17 32 1006.2 - 0.0
19/12:15pm 26.8 20.7 -2.7 14 13.2 NW 20 41 11 22 1006.7 - 0.0
19/12:00pm 26.0 19.5 -2.2 15 12.6 NW 22 44 12 24 1006.9 - 0.0
19/11:45am 25.5 19.7 -1.5 17 12.2 NNW 19 33 10 18 1007.3 - 0.0
19/11:30am 24.9 20.0 -0.5 18 11.6 NNW 15 24 8 13 1007.5 - 0.0
19/11:15am 24.4 19.6 0.4 20 11.1 NNW 15 26 8 14 1007.6 - 0.0
19/11:00am 23.7 18.5 2.7 25 10.1 NNW 19 30 10 16 1007.7 - 0.0
19/10:45am 23.4 19.0 2.9 26 9.9 N 15 24 8 13 1008.0 - 0.0
19/10:30am 22.9 18.9 3.0 27 9.6 NNW 13 24 7 13 1008.5 - 0.0
19/10:15am 22.5 18.7 3.8 29 9.1 NNW 13 22 7 12 1008.8 - 0.0
19/10:00am 21.5 19.2 5.8 36 7.9 NNW 7 13 4 7 1009.1 - 0.0
19/09:45am 19.9 17.6 5.5 39 7.1 NNW 7 13 4 7 1009.4 - 0.0
19/09:30am 20.1 17.8 5.9 39 7.1 NW 7 13 4 7 1009.6 - 0.0
19/09:15am 19.2 16.5 5.7 41 6.7 NW 9 13 5 7 1009.9 - 0.0
19/09:00am 18.4 15.9 6.4 45 6.0 WNW 9 17 5 9 1010.3 - 0.0
19/08:45am 17.8 14.8 5.8 45 5.9 W 11 17 6 9 1010.3 - 0.0
19/08:30am 17.4 14.1 6.3 48 5.5 W 13 20 7 11 1010.4 - 0.0
19/08:15am 16.9 13.2 6.2 49 5.3 W 15 22 8 12 1010.4 - 0.0
19/08:00am 16.4 12.3 6.2 51 5.0 W 17 26 9 14 1010.4 - 0.0
19/07:45am 15.6 11.5 6.1 53 4.6 W 17 24 9 13 1010.2 - 0.0
19/07:30am 15.3 11.1 5.9 53 4.5 WNW 17 24 9 13 1009.8 - 0.0
19/07:15am 15.1 12.1 6.2 55 4.3 NW 11 19 6 10 1009.4 - 0.0
19/07:00am 14.4 11.1 6.3 58 3.9 WNW 13 20 7 11 1009.4 - 0.0
19/06:45am 13.9 9.8 6.0 59 3.8 WNW 17 22 9 12 1009.5 - 0.0
19/06:30am 13.6 9.9 6.3 61 3.5 WNW 15 20 8 11 1009.3 - 0.0
19/06:15am 11.6 8.0 6.6 71 2.4 WNW 15 20 8 11 1009.4 - 0.0
19/06:00am 9.9 6.9 6.0 77 1.8 WNW 11 20 6 11 1009.2 - 0.0
19/05:45am 10.3 7.7 6.2 76 1.9 WNW 9 15 5 8 1009.3 - 0.0
19/05:30am 10.1 7.5 6.3 77 1.8 NW 9 13 5 7 1009.4 - 0.0
19/05:15am 10.0 7.4 5.9 75 1.9 NW 9 13 5 7 1009.5 - 0.0
19/05:00am 11.1 8.5 5.9 70 2.4 WNW 9 11 5 6 1009.4 - 0.0
19/04:45am 13.4 10.6 6.9 65 3.2 NW 11 13 6 7 1009.4 - 0.0
19/04:30am 13.1 10.3 6.8 65 3.1 NW 11 17 6 9 1009.3 - 0.0
19/04:15am 12.5 9.7 7.1 69 2.6 NW 11 15 6 8 1009.3 - 0.0
19/04:00am 12.0 9.1 6.6 69 2.6 NNW 11 17 6 9 1009.1 - 0.0
19/03:45am 11.8 8.9 6.7 71 2.4 NNW 11 22 6 12 1009.1 - 0.0
19/03:30am 11.7 8.5 6.9 72 2.3 NNW 13 17 7 9 1009.2 - 0.0
19/03:15am 10.9 7.7 6.7 75 2.0 NNW 13 17 7 9 1009.4 - 0.0
19/03:00am 11.0 8.1 6.7 75 2.0 NW 11 13 6 7 1009.6 - 0.0
19/02:45am 11.2 7.9 6.4 72 2.3 NNW 13 17 7 9 1009.8 - 0.0
19/02:30am 12.6 9.1 7.1 69 2.7 NW 15 17 8 9 1010.0 - 0.0
19/02:15am 11.8 8.7 7.4 74 2.1 NW 13 15 7 8 1010.2 - 0.0
19/02:00am 10.8 8.7 6.8 76 1.9 WNW 7 11 4 6 1010.3 - 0.0
19/01:45am 11.1 9.1 6.9 75 2.0 WNW 7 9 4 5 1010.5 - 0.0
19/01:30am 11.2 9.3 6.8 74 2.1 NW 6 7 3 4 1010.8 - 0.0
19/01:15am 11.5 9.6 6.7 72 2.3 NW 6 7 3 4 1011.0 - 0.0
19/01:00am 12.4 10.6 7.0 69 2.6 NW 6 7 3 4 1011.1 - 0.0
19/12:45am 12.6 10.7 6.9 68 2.8 NW 6 9 3 5 1011.3 - 0.0
19/12:30am 13.6 11.8 7.3 65 3.1 N 6 9 3 5 1011.5 - 0.0
19/12:15am 13.7 11.7 7.1 64 3.2 N 7 11 4 6 1011.7 - 0.0
19/12:00am 14.0 12.0 7.2 63 3.3 N 7 11 4 6 1011.7 - 0.0
 
Date/Time
EST
Temp
°C
App
Temp
°C
Dew
Point
°C
Rel
Hum
%
Delta-T
°C
Wind Press
QNH
hPa
Press
MSL
hPa
Rain since
9am
mm
Dir  Spd
km/h
Gust
km/h
Spd
kts
Gust
kts
18/11:45pm 14.4 11.7 7.3 62 3.5 N 11 15 6 8 1011.9 - 0.0
18/11:30pm 14.6 11.5 7.2 61 3.7 NNE 13 17 7 9 1011.9 - 0.0
18/11:15pm 14.8 11.7 7.1 60 3.8 NNE 13 17 7 9 1012.2 - 0.0
18/11:00pm 15.4 12.3 7.3 58 4.0 NNE 13 17 7 9 1012.5 - 0.0
18/10:45pm 15.1 11.6 7.1 59 4.0 NNE 15 19 8 10 1012.7 - 0.0
18/10:30pm 15.4 11.9 7.1 57 4.1 NNE 15 17 8 9 1012.9 - 0.0
18/10:15pm 15.1 12.3 6.9 58 4.0 NNE 11 13 6 7 1013.1 - 0.0
18/10:00pm 15.1 12.2 6.7 57 4.1 NNE 11 13 6 7 1013.2 - 0.0
18/09:45pm 15.2 12.8 6.8 57 4.1 N 9 13 5 7 1013.2 - 0.0
18/09:30pm 15.7 13.3 6.9 56 4.4 N 9 13 5 7 1013.3 - 0.0
18/09:15pm 15.8 13.0 7.0 56 4.4 N 11 15 6 8 1013.3 - 0.0
18/09:00pm 16.1 13.3 7.1 55 4.5 N 11 15 6 8 1013.3 - 0.0
18/08:45pm 16.1 13.4 7.2 55 4.4 NNE 11 15 6 8 1013.4 - 0.0
18/08:30pm 16.3 13.2 7.4 55 4.5 NNE 13 17 7 9 1013.4 - 0.0
18/08:15pm 16.4 13.4 7.5 55 4.5 NNE 13 17 7 9 1013.5 - 0.0
18/08:00pm 16.6 13.6 7.7 55 4.5 NNE 13 19 7 10 1013.4 - 0.0
18/07:45pm 16.7 13.8 8.0 56 4.4 NNE 13 17 7 9 1013.4 - 0.0
18/07:30pm 16.8 14.0 8.4 57 4.3 NNE 13 17 7 9 1013.3 - 0.0
18/07:15pm 16.8 14.1 8.9 59 4.1 NE 13 19 7 10 1013.2 - 0.0
18/07:00pm 17.0 14.8 9.3 60 4.0 NE 11 19 6 10 1013.1 - 0.0
18/06:45pm 17.2 14.6 9.5 60 4.1 NE 13 17 7 9 1013.0 - 0.0
18/06:30pm 17.4 14.9 9.8 61 4.0 NE 13 19 7 10 1012.9 - 0.0
18/06:15pm 17.5 15.1 10.2 62 3.9 NNE 13 19 7 10 1012.8 - 0.0
18/06:00pm 17.8 15.9 10.5 62 3.9 NE 11 17 6 9 1012.7 - 0.0
18/05:45pm 18.2 16.3 10.5 60 4.2 ENE 11 17 6 9 1012.5 - 0.0
18/05:30pm 18.8 16.5 10.3 57 4.6 ENE 13 17 7 9 1012.5 - 0.0
18/05:15pm 19.4 16.2 10.1 55 5.0 ENE 17 22 9 12 1012.4 - 0.0
18/05:00pm 20.0 16.7 9.7 51 5.5 ENE 17 22 9 12 1012.3 - 0.0
18/04:45pm 20.6 17.1 8.9 47 6.2 NE 17 22 9 12 1012.2 - 0.0
18/04:30pm 21.2 17.2 8.2 43 6.8 NE 19 24 10 13 1012.2 - 0.0
18/04:15pm 21.5 17.1 7.6 40 7.2 NE 20 30 11 16 1012.2 - 0.0
18/04:00pm 21.9 17.5 7.5 39 7.5 NE 20 30 11 16 1012.3 - 0.0
18/03:45pm 22.3 18.1 8.2 40 7.5 NE 20 26 11 14 1012.4 - 0.0
18/03:30pm 22.2 18.0 8.1 40 7.4 NE 20 26 11 14 1012.5 - 0.0
18/03:15pm 22.6 18.5 8.6 40 7.5 NE 20 30 11 16 1012.5 - 0.0
18/03:00pm 22.7 18.2 8.5 40 7.6 NE 22 28 12 15 1012.6 - 0.0
18/02:45pm 22.9 18.9 8.1 38 7.8 ENE 19 26 10 14 1012.8 - 0.0
18/02:30pm 24.0 21.0 5.8 31 9.3 NNE 11 22 6 12 1013.0 - 0.0
18/02:15pm 24.3 19.7 1.6 22 10.8 N 15 26 8 14 1013.3 - 0.0
18/02:00pm 24.0 19.8 1.4 22 10.7 NW 13 24 7 13 1013.6 - 0.0
18/01:45pm 24.0 19.8 1.7 23 10.6 NNW 13 24 7 13 1013.8 - 0.0
18/01:30pm 23.4 19.1 1.3 23 10.4 NNW 13 28 7 15 1014.1 - 0.0
18/01:15pm 23.2 19.0 1.9 24 10.1 NNW 13 24 7 13 1014.4 - 0.0
18/01:00pm 22.9 18.7 1.9 25 9.9 NW 13 24 7 13 1014.9 - 0.0
18/12:45pm 22.7 19.4 2.7 27 9.6 NNW 9 20 5 11 1015.2 - 0.0
18/12:30pm 22.1 18.0 2.1 26 9.4 NNW 13 22 7 12 1015.6 - 0.0
18/12:15pm 21.9 18.6 2.7 28 9.1 NNW 9 19 5 10 1016.0 - 0.0
18/12:00pm 21.3 17.3 2.9 29 8.8 N 13 22 7 12 1016.5 - 0.0
18/11:45am 21.0 17.6 4.0 32 8.2 N 11 17 6 9 1016.9 - 0.0
18/11:30am 20.5 16.3 4.0 33 8.0 NNW 15 22 8 12 1017.2 - 0.0
18/11:15am 20.1 16.1 4.8 36 7.5 NNW 15 22 8 12 1017.5 - 0.0
18/11:00am 19.4 15.4 4.9 38 7.1 N 15 22 8 12 1017.8 - 0.0
18/10:45am 18.8 15.0 5.6 42 6.5 N 15 24 8 13 1018.1 - 0.0
18/10:30am 18.0 14.6 5.9 45 6.0 NNW 13 22 7 12 1018.4 - 0.0
18/10:15am 17.6 14.6 6.2 47 5.6 NNW 11 20 6 11 1018.7 - 0.0
18/10:00am 16.8 14.3 6.6 51 5.1 NNW 9 20 5 11 1018.9 - 0.0
18/09:45am 16.0 13.9 6.8 54 4.6 NNW 7 15 4 8 1019.1 - 0.0
18/09:30am 15.2 12.7 6.5 56 4.3 NNW 9 17 5 9 1019.5 - 0.0
18/09:15am 14.5 12.5 7.1 61 3.6 NNW 7 13 4 7 1019.7 - 0.0
18/09:00am 13.7 11.7 6.9 63 3.3 NW 7 13 4 7 1019.8 - 0.0
18/08:45am 13.0 10.6 6.9 66 3.0 NW 9 13 5 7 1020.0 - 0.0
18/08:30am 12.6 10.2 7.0 68 2.7 NW 9 15 5 8 1020.0 - 0.0
18/08:15am 11.8 8.6 6.8 71 2.4 NW 13 17 7 9 1020.1 - 0.0
18/08:00am 11.4 8.6 6.8 73 2.2 WNW 11 17 6 9 1020.0 - 0.0
18/07:45am 11.1 8.7 7.1 76 1.9 WNW 9 15 5 8 1019.8 - 0.0
18/07:30am 10.3 8.6 7.7 84 1.3 WNW 6 9 3 5 1019.8 - 0.0
18/07:15am 8.2 6.3 6.6 90 0.7 WNW 6 9 3 5 1019.9 - 0.0
18/07:00am 7.3 5.6 5.8 90 0.7 NW 4 7 2 4 1019.9 - 0.0
18/06:45am 6.3 4.4 4.8 90 0.7 NNW 4 6 2 3 1019.9 - 0.0
18/06:30am 5.9 3.9 4.3 89 0.7 NNW 4 6 2 3 1019.9 - 0.0
18/06:15am 5.6 3.1 4.0 89 0.7 NW 6 6 3 3 1019.9 - 0.0
18/06:00am 5.8 3.4 4.2 89 0.7 NW 6 6 3 3 1019.8 - 0.0
18/05:45am 6.0 4.0 4.3 89 0.7 WNW 4 6 2 3 1019.8 - 0.0
18/05:30am 6.1 3.7 4.3 88 0.8 NW 6 7 3 4 1019.8 - 0.0
18/05:15am 6.2 3.6 4.4 88 0.8 NW 7 9 4 5 1019.8 - 0.0
18/05:00am 6.7 3.8 4.8 88 0.8 NNW 9 9 5 5 1019.8 - 0.0
18/04:45am 6.7 3.8 4.7 87 0.9 NNW 9 11 5 6 1019.6 - 0.0
18/04:30am 7.0 4.2 5.0 87 0.9 NNW 9 11 5 6 1019.6 - 0.0
18/04:15am 6.8 3.9 4.8 87 0.9 NNW 9 17 5 9 1019.5 - 0.0
18/04:00am 6.8 3.9 4.6 86 1.0 NNW 9 11 5 6 1019.5 - 0.0
18/03:45am 7.3 4.4 4.9 85 1.1 NNW 9 11 5 6 1019.6 - 0.0
18/03:30am 7.9 4.8 5.4 84 1.1 NNW 11 11 6 6 1019.7 - 0.0
18/03:15am 7.9 4.7 5.3 84 1.2 NNW 11 13 6 7 1019.9 - 0.0
18/03:00am 8.1 5.0 5.5 84 1.2 NNW 11 13 6 7 1020.0 - 0.0
18/02:45am 8.2 5.1 5.5 83 1.2 NNW 11 13 6 7 1020.2 - 0.0
18/02:30am 8.3 4.8 5.5 82 1.3 NNW 13 13 7 7 1020.3 - 0.0
18/02:15am 8.5 5.0 5.6 82 1.3 NNW 13 13 7 7 1020.5 - 0.0
18/02:00am 8.6 5.1 5.4 80 1.5 NNW 13 17 7 9 1020.6 - 0.0
18/01:45am 9.2 5.4 5.7 79 1.6 NNW 15 17 8 9 1020.8 - 0.0
18/01:30am 9.5 6.1 6.1 79 1.6 NNW 13 15 7 8 1020.9 - 0.0
18/01:15am 9.0 5.2 6.0 81 1.4 NNW 15 17 8 9 1021.1 - 0.0
18/01:00am 8.5 5.1 5.7 82 1.3 NNW 13 17 7 9 1021.2 - 0.0
18/12:45am 8.6 5.1 5.6 81 1.4 NNW 13 17 7 9 1021.4 - 0.0
18/12:30am 8.8 5.7 5.6 80 1.5 NNW 11 13 6 7 1021.5 - 0.0
18/12:15am 9.3 5.8 5.5 77 1.7 NNW 13 15 7 8 1021.6 - 0.0
18/12:00am 9.8 6.1 6.2 78 1.7 NNW 15 19 8 10 1021.7 - 0.0
 
Date/Time
EST
Temp
°C
App
Temp
°C
Dew
Point
°C
Rel
Hum
%
Delta-T
°C
Wind Press
QNH
hPa
Press
MSL
hPa
Rain since
9am
mm
Dir  Spd
km/h
Gust
km/h
Spd
kts
Gust
kts
17/11:45pm 9.6 6.2 5.9 78 1.7 NNW 13 17 7 9 1021.8 - 0.0
17/11:30pm 10.2 6.9 6.3 77 1.8 NW 13 15 7 8 1021.9 - 0.0
17/11:15pm 10.3 7.4 6.6 78 1.7 NW 11 15 6 8 1022.0 - 0.0
17/11:00pm 9.5 5.8 6.1 79 1.6 NNW 15 17 8 9 1022.0 - 0.0
17/10:45pm 9.5 5.7 5.7 77 1.7 NNW 15 19 8 10 1022.0 - 0.0
17/10:30pm 10.0 6.6 6.0 76 1.9 NNW 13 17 7 9 1021.9 - 0.0
17/10:15pm 10.4 7.8 6.1 75 2.0 NNW 9 15 5 8 1022.0 - 0.0
17/10:00pm 10.5 7.5 6.0 74 2.1 N 11 15 6 8 1022.1 - 0.0
17/09:45pm 10.9 7.9 6.0 72 2.3 NNW 11 13 6 7 1022.1 - 0.0
17/09:30pm 11.0 8.4 5.9 71 2.4 N 9 13 5 7 1022.2 - 0.0
17/09:15pm 11.3 8.6 5.8 69 2.6 N 9 15 5 8 1022.3 - 0.0
17/09:00pm 11.7 9.0 5.7 66 2.8 N 9 15 5 8 1022.3 - 0.0
17/08:45pm 12.0 8.9 5.5 64 3.0 - 11 19 6 10 1022.1 - 0.0
17/08:30pm 12.2 9.0 5.2 62 3.3 N 11 17 6 9 1022.1 - 0.0
17/08:15pm 12.6 9.4 5.1 60 3.5 N 11 19 6 10 1021.9 - 0.0
17/08:00pm 12.8 9.2 4.8 58 3.7 NNE 13 22 7 12 1021.9 - 0.0
17/07:45pm 13.0 9.3 4.5 56 3.9 NNE 13 19 7 10 1021.8 - 0.0
17/07:30pm 13.0 8.9 4.4 56 4.0 NNE 15 24 8 13 1021.8 - 0.0
17/07:15pm 13.1 9.4 4.4 55 4.0 NNE 13 22 7 12 1021.7 - 0.0
17/07:00pm 13.3 9.2 4.3 54 4.1 NNE 15 22 8 12 1021.6 - 0.0
17/06:45pm 13.5 9.0 4.3 53 4.2 NNE 17 26 9 14 1021.5 - 0.0
17/06:30pm 13.7 8.9 4.5 54 4.3 NNE 19 32 10 17 1021.3 - 0.0
17/06:15pm 13.6 9.5 4.6 54 4.2 NNE 15 24 8 13 1021.2 - 0.0
17/06:00pm 13.9 9.9 4.8 54 4.3 NE 15 24 8 13 1021.2 - 0.0
17/05:45pm 14.1 10.1 4.8 53 4.4 NE 15 24 8 13 1021.1 - 0.0
17/05:30pm 14.6 9.8 4.9 52 4.6 NE 19 30 10 16 1020.9 - 0.0
17/05:15pm 14.9 9.6 5.0 51 4.7 NE 22 30 12 16 1020.9 - 0.0
17/05:00pm 15.2 10.0 5.3 51 4.7 NE 22 32 12 17 1020.9 - 0.0
17/04:45pm 15.5 10.6 5.2 50 4.9 NE 20 30 11 16 1020.8 - 0.0
17/04:30pm 15.8 10.5 5.1 49 5.1 NE 22 32 12 17 1020.8 - 0.0
17/04:15pm 16.1 11.3 5.4 49 5.1 ENE 20 30 11 16 1020.8 - 0.0
17/04:00pm 16.0 10.8 5.6 50 5.0 ENE 22 32 12 17 1020.9 - 0.0
17/03:45pm 16.1 10.9 5.4 49 5.1 ENE 22 32 12 17 1020.9 - 0.0
17/03:30pm 16.6 11.8 5.4 47 5.4 NE 20 26 11 14 1021.1 - 0.0
17/03:15pm 16.5 11.8 5.3 47 5.4 ENE 19 30 10 16 1021.3 - 0.0
17/03:00pm 16.5 11.6 5.2 47 5.4 ENE 20 28 11 15 1021.4 - 0.0
17/02:45pm 16.5 11.6 5.2 47 5.4 ENE 20 28 11 15 1021.5 - 0.0
17/02:30pm 16.6 12.3 5.3 47 5.4 NE 17 28 9 15 1021.6 - 0.0
17/02:15pm 16.5 12.1 5.0 46 5.5 NE 17 26 9 14 1021.7 - 0.0
17/02:00pm 16.8 12.5 5.3 46 5.6 NE 17 24 9 13 1021.8 - 0.0
17/01:45pm 16.6 11.9 5.0 46 5.6 NE 19 26 10 14 1021.9 - 0.0
17/01:30pm 16.6 12.6 4.9 46 5.6 NE 15 24 8 13 1022.0 - 0.0
17/01:15pm 16.9 12.5 4.7 44 5.8 NE 17 24 9 13 1022.2 - 0.0
17/01:00pm 16.3 12.4 3.3 42 6.0 NNE 13 20 7 11 1022.5 - 0.0
17/12:45pm 16.4 13.0 1.8 37 6.5 N 9 19 5 10 1022.8 - 0.0
17/12:30pm 16.6 12.8 1.5 36 6.7 N 11 22 6 12 1023.1 - 0.0
17/12:15pm 16.7 13.2 1.3 35 6.8 N 9 20 5 11 1023.4 - 0.0
17/12:00pm 16.0 11.7 0.8 35 6.6 N 13 22 7 12 1023.7 - 0.0
17/11:45am 16.2 11.9 0.9 35 6.7 N 13 24 7 13 1023.9 - 0.0
17/11:30am 15.9 11.9 0.8 36 6.6 NNW 11 19 6 10 1024.1 - 0.0
17/11:15am 16.1 12.6 1.2 36 6.6 N 9 24 5 13 1024.5 - 0.0
17/11:00am 15.6 11.2 0.6 36 6.5 N 13 22 7 12 1024.7 - 0.0
17/10:45am 15.4 12.3 1.6 39 6.1 N 7 17 4 9 1024.8 - 0.0
17/10:30am 15.3 11.3 0.3 36 6.4 N 11 17 6 9 1024.9 - 0.0
17/10:15am 15.1 11.5 0.9 38 6.2 N 9 17 5 9 1025.0 - 0.0
17/10:00am 15.3 12.2 1.3 38 6.1 NNE 7 15 4 8 1025.1 - 0.0
17/09:45am 14.7 12.3 2.2 43 5.6 NW 4 13 2 7 1025.2 - 0.0
17/09:30am 14.6 12.4 3.5 47 5.1 NW 4 11 2 6 1025.4 - 0.0
17/09:15am 14.3 12.4 4.7 52 4.5 W 4 9 2 5 1025.4 - 0.0
17/09:00am 14.0 12.2 5.3 55 4.1 S 4 6 2 3 1025.4 - 0.0
17/08:45am 13.7 12.2 5.2 56 4.0 SE 2 6 1 3 1025.5 - 0.0
17/08:30am 13.4 11.9 5.2 57 3.8 S 2 6 1 3 1025.4 - 0.0
17/08:15am 13.0 11.1 5.1 58 3.7 SSW 4 6 2 3 1025.3 - 0.0
17/08:00am 11.9 10.0 5.0 62 3.2 SW 4 6 2 3 1025.1 - 0.0
17/07:45am 10.4 8.1 4.7 68 2.6 SW 6 9 3 5 1025.1 - 0.0
17/07:30am 8.6 5.6 4.3 74 1.9 SW 9 11 5 6 1025.0 - 0.0
17/07:15am 7.1 3.6 3.7 79 1.5 SSW 11 13 6 7 1024.8 - 0.0
17/07:00am 5.5 1.9 2.8 83 1.1 SSW 11 13 6 7 1024.6 - 0.0
17/06:45am 4.8 0.7 2.5 85 0.9 SSW 13 17 7 9 1024.5 - 0.0
17/06:30am 3.9 -1.0 1.9 87 0.8 SSW 17 19 9 10 1024.4 - 0.0
17/06:15am 3.5 -1.5 1.5 87 0.8 SSW 17 19 9 10 1024.4 - 0.0
17/06:00am 3.3 -1.7 1.3 87 0.8 SSW 17 17 9 9 1024.3 - 0.0
17/05:45am 3.2 -1.9 1.0 85 0.8 SSW 17 19 9 10 1024.1 - 0.0
17/05:30am 3.3 -1.0 1.0 85 0.9 SSW 13 13 7 7 1024.0 - 0.0
17/05:15am 3.7 -0.2 1.1 83 1.0 SSW 11 11 6 6 1023.9 - 0.0
17/05:00am 4.6 0.8 1.5 80 1.2 SSW 11 13 6 7 1023.7 - 0.0
17/04:45am 5.3 1.6 2.4 81 1.2 SW 11 13 6 7 1023.6 - 0.0
17/04:30am 5.1 1.8 2.2 81 1.2 SW 9 13 5 7 1023.6 - 0.0
17/04:15am 4.8 1.4 2.0 82 1.1 WSW 9 11 5 6 1023.5 - 0.0
17/04:00am 4.8 1.8 2.1 83 1.1 SW 7 9 4 5 1023.3 - 0.0
17/03:45am 4.4 1.5 1.6 82 1.1 SSW 6 9 3 5 1023.2 - 0.0
17/03:30am 4.6 1.6 1.7 81 1.2 S 7 9 4 5 1023.1 - 0.0
17/03:15am 4.8 1.8 1.9 81 1.2 S 7 9 4 5 1023.0 - 0.0
17/03:00am 4.7 1.7 1.7 81 1.2 S 7 9 4 5 1023.0 - 0.0
17/02:45am 4.9 2.0 1.5 79 1.4 S 6 9 3 5 1023.1 - 0.0
17/02:30am 5.7 2.9 1.8 76 1.6 S 6 7 3 4 1023.2 - 0.0
17/02:15am 6.1 3.1 2.3 76 1.6 S 7 11 4 6 1023.4 - 0.0
17/02:00am 6.2 2.9 2.2 75 1.6 S 9 11 5 6 1023.4 - 0.0
17/01:45am 6.2 2.9 2.4 76 1.6 S 9 11 5 6 1023.5 - 0.0
17/01:30am 5.7 2.3 2.1 78 1.5 S 9 11 5 6 1023.5 - 0.0
17/01:15am 5.5 1.7 1.8 77 1.5 S 11 13 6 7 1023.7 - 0.0
17/01:00am 5.4 1.6 1.6 76 1.5 S 11 13 6 7 1023.8 - 0.0
17/12:45am 5.5 1.7 1.6 76 1.6 S 11 13 6 7 1023.8 - 0.0
17/12:30am 5.6 1.8 1.7 76 1.6 S 11 13 6 7 1023.8 - 0.0
17/12:15am 5.4 1.5 1.3 75 1.6 S 11 13 6 7 1023.8 - 0.0
17/12:00am 5.5 2.0 1.5 75 1.6 S 9 11 5 6 1023.8 - 0.0
 
Date/Time
EST
Temp
°C
App
Temp
°C
Dew
Point
°C
Rel
Hum
%
Delta-T
°C
Wind Press
QNH
hPa
Press
MSL
hPa
Rain since
9am
mm
Dir  Spd
km/h
Gust
km/h
Spd
kts
Gust
kts
16/11:45pm 5.4 1.9 1.3 75 1.6 S 9 11 5 6 1023.7 - 0.0
16/11:30pm 5.6 2.1 1.3 74 1.7 S 9 11 5 6 1023.8 - 0.0
16/11:15pm 5.6 2.1 1.0 72 1.8 SSW 9 11 5 6 1023.9 - 0.0
16/11:00pm 6.2 2.7 1.1 70 2.0 SSW 9 13 5 7 1023.9 - 0.0
16/10:45pm 6.5 2.2 1.3 69 2.1 SSW 13 13 7 7 1023.9 - 0.0
16/10:30pm 6.5 2.2 1.0 68 2.2 SSW 13 15 7 8 1023.9 - 0.0
16/10:15pm 7.3 3.0 1.2 65 2.5 SSW 13 17 7 9 1023.9 - 0.0
16/10:00pm 7.7 3.5 1.6 65 2.5 SSW 13 17 7 9 1023.8 - 0.0
16/09:45pm 7.6 3.8 1.7 66 2.4 SSW 11 13 6 7 1023.7 - 0.0
16/09:30pm 7.3 3.4 1.3 65 2.4 SSW 11 17 6 9 1023.5 - 0.0
16/09:15pm 7.8 3.9 1.4 64 2.6 SSW 11 13 6 7 1023.3 - 0.0
16/09:00pm 8.4 5.0 1.6 62 2.8 SSW 9 11 5 6 1023.2 - 0.0

Other Formats:

Comma delimited format used in spreadsheet applications
http://www.bom.gov.au/fwo/IDN60801/IDN60801.95757.axf

JavaScript Object Notation format (JSON) in row-major order
http://www.bom.gov.au/fwo/IDN60801/IDN60801.95757.json